createdAt,value
2022-09-29T00:00:18.598Z,5.97
2022-09-29T00:02:41.113Z,8.60
2022-09-29T00:05:03.916Z,7.65
2022-09-29T00:07:28.760Z,6.72
2022-09-29T00:09:51.320Z,6.85
2022-09-29T00:12:13.857Z,7.60
2022-09-29T00:14:36.600Z,8.32
2022-09-29T00:16:59.133Z,7.38
2022-09-29T00:19:21.724Z,5.90
2022-09-29T00:21:44.271Z,7.70
2022-09-29T00:24:06.851Z,6.03
2022-09-29T00:26:29.282Z,7.07
2022-09-29T00:28:57.278Z,6.80
2022-09-29T00:31:21.304Z,7.28
2022-09-29T00:33:44.361Z,7.57
2022-09-29T00:36:12.044Z,8.80
2022-09-29T00:38:35.807Z,6.78
2022-09-29T00:40:58.751Z,6.30
2022-09-29T00:43:51.933Z,9.13
2022-09-29T00:46:22.694Z,9.30
2022-09-29T00:48:46.830Z,8.10
2022-09-29T00:51:09.952Z,11.23
2022-09-29T00:53:33.165Z,11.55
2022-09-29T00:55:59.247Z,7.57
2022-09-29T00:58:39.947Z,10.02
2022-09-29T01:01:04.777Z,9.23
2022-09-29T01:03:33.459Z,9.88
2022-09-29T01:06:02.097Z,10.05
2022-09-29T01:08:42.804Z,8.50
2022-09-29T01:11:06.085Z,9.18
2022-09-29T01:13:30.087Z,9.50
2022-09-29T01:15:52.610Z,10.00
2022-09-29T01:18:15.439Z,9.93
2022-09-29T01:21:18.332Z,9.52
2022-09-29T01:24:05.378Z,10.18
2022-09-29T01:26:36.784Z,9.60
2022-09-29T01:29:23.590Z,10.82
2022-09-29T01:31:54.928Z,12.65
2022-09-29T01:34:26.644Z,9.50
2022-09-29T01:37:00.544Z,9.13
2022-09-29T01:39:33.564Z,9.07
2022-09-29T01:42:14.139Z,8.43
2022-09-29T01:44:46.070Z,8.82
2022-09-29T01:47:13.618Z,9.68
2022-09-29T01:49:41.034Z,8.93
2022-09-29T01:52:08.710Z,9.83
2022-09-29T01:54:45.494Z,8.85
2022-09-29T01:57:18.302Z,9.07
2022-09-29T01:59:47.675Z,10.55
2022-09-29T02:02:15.337Z,10.82
2022-09-29T02:04:42.767Z,8.90
2022-09-29T02:07:21.122Z,9.85
2022-09-29T02:09:49.516Z,9.98
2022-09-29T02:12:17.152Z,9.68
2022-09-29T02:14:47.376Z,9.95
2022-09-29T02:17:20.122Z,8.67
2022-09-29T02:19:43.834Z,9.38
2022-09-29T02:22:06.579Z,11.20
2022-09-29T02:24:29.032Z,10.63
2022-09-29T02:26:52.375Z,8.65
2022-09-29T02:29:16.807Z,9.97
2022-09-29T02:31:40.255Z,11.55
2022-09-29T02:34:04.579Z,10.13
2022-09-29T02:37:05.089Z,10.05
2022-09-29T02:39:52.151Z,11.30
2022-09-29T02:42:52.355Z,9.93
2022-09-29T02:45:28.950Z,10.02
2022-09-29T02:48:08.311Z,10.48
2022-09-29T02:50:42.657Z,10.68
2022-09-29T02:53:20.108Z,11.88
2022-09-29T02:56:04.315Z,11.40
2022-09-29T02:58:53.716Z,11.40
2022-09-29T03:01:16.815Z,10.20
2022-09-29T03:03:39.624Z,11.10
2022-09-29T03:06:02.361Z,13.05
2022-09-29T03:08:25.500Z,11.77
2022-09-29T03:10:48.047Z,12.10
2022-09-29T03:13:10.757Z,10.85
2022-09-29T03:15:33.324Z,10.98
2022-09-29T03:17:59.340Z,12.77
2022-09-29T03:20:21.921Z,11.87
2022-09-29T03:22:44.423Z,11.68
2022-09-29T03:25:07.163Z,11.18
2022-09-29T03:27:29.747Z,12.02
2022-09-29T03:29:52.268Z,11.95
2022-09-29T03:32:14.755Z,12.43
2022-09-29T03:34:39.059Z,11.85
2022-09-29T03:37:02.216Z,11.38
2022-09-29T03:39:25.635Z,11.20
2022-09-29T03:41:48.299Z,11.95
2022-09-29T03:44:10.847Z,11.70
2022-09-29T03:46:33.444Z,12.48
2022-09-29T03:48:56.610Z,13.63
2022-09-29T03:51:19.273Z,12.90
2022-09-29T03:53:41.799Z,12.27
2022-09-29T03:56:05.201Z,12.67
2022-09-29T03:58:28.177Z,13.20
2022-09-29T04:00:51.009Z,13.27
2022-09-29T04:03:13.597Z,12.52
2022-09-29T04:05:38.881Z,14.57
2022-09-29T04:08:01.611Z,13.90
2022-09-29T04:10:24.171Z,13.77
2022-09-29T04:12:46.691Z,17.20
2022-09-29T04:15:09.523Z,15.45
2022-09-29T04:17:32.512Z,14.05
2022-09-29T04:19:57.630Z,15.83
2022-09-29T04:22:20.358Z,18.52
2022-09-29T04:24:42.936Z,17.45
2022-09-29T04:27:05.486Z,14.52
2022-09-29T04:29:28.043Z,17.35
2022-09-29T04:31:50.704Z,20.83
2022-09-29T04:34:13.267Z,16.83
2022-09-29T04:36:35.847Z,17.42
2022-09-29T04:38:58.823Z,18.58
2022-09-29T04:41:21.835Z,18.33
2022-09-29T04:43:44.334Z,19.07
2022-09-29T04:46:08.342Z,17.92
2022-09-29T04:48:34.984Z,19.05
2022-09-29T04:50:58.364Z,21.27
2022-09-29T04:53:20.821Z,19.65
2022-09-29T04:55:43.386Z,21.63
2022-09-29T04:58:06.109Z,18.48
2022-09-29T05:00:28.781Z,19.05
2022-09-29T05:02:51.183Z,17.83
2022-09-29T05:05:13.691Z,19.85
2022-09-29T05:07:37.080Z,19.87
2022-09-29T05:10:01.443Z,21.92
2022-09-29T05:12:24.089Z,20.92
2022-09-29T05:14:47.176Z,19.10
2022-09-29T05:17:09.930Z,20.45
2022-09-29T05:19:32.652Z,20.13
2022-09-29T05:21:55.215Z,18.60
2022-09-29T05:24:17.784Z,18.13
2022-09-29T05:26:40.494Z,16.30
2022-09-29T05:29:03.567Z,16.02
2022-09-29T05:31:26.265Z,16.20
2022-09-29T05:33:49.132Z,15.85
2022-09-29T05:36:13.042Z,14.10
2022-09-29T05:38:36.784Z,14.70
2022-09-29T05:41:04.805Z,16.88
2022-09-29T05:43:27.506Z,13.27
2022-09-29T05:45:50.315Z,14.15
2022-09-29T05:48:13.039Z,13.10
2022-09-29T05:50:41.980Z,11.80
2022-09-29T05:53:04.714Z,14.95
2022-09-29T05:55:27.262Z,15.87
2022-09-29T05:57:51.100Z,13.70
2022-09-29T06:00:13.903Z,12.20
2022-09-29T06:02:36.562Z,11.32
2022-09-29T06:05:00.839Z,11.93
2022-09-29T06:07:23.621Z,11.43
2022-09-29T06:09:47.773Z,10.52
2022-09-29T06:12:10.512Z,9.02
2022-09-29T06:14:33.135Z,7.38
2022-09-29T06:16:56.074Z,8.77
2022-09-29T06:19:18.589Z,7.40
2022-09-29T06:21:41.265Z,6.03
2022-09-29T06:24:07.278Z,6.60
2022-09-29T06:26:32.305Z,6.88
2022-09-29T06:28:56.060Z,6.40
2022-09-29T06:31:21.346Z,6.07
2022-09-29T06:33:44.227Z,5.85
2022-09-29T06:36:59.383Z,5.75
2022-09-29T06:39:22.248Z,6.35
2022-09-29T06:41:57.642Z,5.13
2022-09-29T06:44:21.523Z,5.60
2022-09-29T06:46:44.304Z,4.90
2022-09-29T06:49:07.220Z,5.72
2022-09-29T06:51:41.754Z,6.03
2022-09-29T06:54:12.053Z,5.82
2022-09-29T06:56:35.161Z,7.67
2022-09-29T06:58:58.071Z,4.50
2022-09-29T07:01:42.268Z,6.60
2022-09-29T07:04:06.383Z,5.95
2022-09-29T07:06:32.754Z,4.75
2022-09-29T07:08:57.067Z,3.43
2022-09-29T07:11:19.638Z,3.33
2022-09-29T07:13:42.454Z,3.58
2022-09-29T07:16:10.325Z,3.38
2022-09-29T07:18:35.626Z,3.33
2022-09-29T07:20:58.164Z,3.80
2022-09-29T07:23:21.382Z,3.80
2022-09-29T07:25:52.089Z,6.25
2022-09-29T07:28:15.374Z,2.58
2022-09-29T07:30:40.928Z,3.25
2022-09-29T07:33:03.851Z,2.37
2022-09-29T07:35:28.181Z,3.17
2022-09-29T07:37:52.333Z,3.13
2022-09-29T07:40:15.761Z,2.60
2022-09-29T07:42:38.920Z,2.83
2022-09-29T07:45:01.604Z,2.77
2022-09-29T07:47:24.430Z,3.22
2022-09-29T07:49:47.286Z,2.35
2022-09-29T07:52:10.866Z,2.20
2022-09-29T07:54:33.443Z,2.33
2022-09-29T07:56:56.225Z,2.93
2022-09-29T07:59:19.610Z,1.80
2022-09-29T08:01:42.464Z,1.73
2022-09-29T08:04:05.540Z,2.65
2022-09-29T08:06:28.470Z,3.00
2022-09-29T08:09:02.071Z,2.40
2022-09-29T08:11:31.519Z,2.53
2022-09-29T08:13:55.238Z,2.72
2022-09-29T08:16:18.102Z,2.17
2022-09-29T08:18:42.205Z,2.65
2022-09-29T08:21:05.580Z,2.13
2022-09-29T08:23:28.821Z,2.00
2022-09-29T08:26:06.047Z,1.73
2022-09-29T08:28:32.465Z,2.88
2022-09-29T08:30:55.750Z,2.28
2022-09-29T08:33:18.509Z,2.40
2022-09-29T08:35:41.990Z,2.50
2022-09-29T08:38:05.527Z,1.85
2022-09-29T08:40:30.487Z,2.08
2022-09-29T08:43:29.030Z,2.75
2022-09-29T08:46:02.556Z,2.53
2022-09-29T08:48:28.232Z,2.00
2022-09-29T08:50:57.548Z,1.70
2022-09-29T08:53:28.279Z,2.60
2022-09-29T08:55:54.959Z,1.70
2022-09-29T08:58:17.808Z,1.60
2022-09-29T09:00:55.092Z,1.75
2022-09-29T09:03:20.837Z,1.65
2022-09-29T09:05:55.440Z,1.85
2022-09-29T09:08:44.543Z,2.22
2022-09-29T09:11:33.362Z,2.23
2022-09-29T09:14:11.125Z,1.58
2022-09-29T09:16:52.274Z,1.88
2022-09-29T09:19:20.859Z,1.20
2022-09-29T09:21:47.608Z,2.30
2022-09-29T09:24:40.071Z,1.73
2022-09-29T09:27:04.029Z,1.33
2022-09-29T09:29:40.646Z,1.02
2022-09-29T09:32:09.421Z,1.23
2022-09-29T09:35:17.060Z,1.73
2022-09-29T09:37:43.063Z,1.90
2022-09-29T09:40:27.865Z,1.85
2022-09-29T09:42:59.412Z,1.25
2022-09-29T09:45:34.395Z,1.80
2022-09-29T09:48:08.764Z,1.65
2022-09-29T09:50:31.582Z,1.10
2022-09-29T09:53:06.255Z,1.30
2022-09-29T09:55:30.347Z,5.18
2022-09-29T09:58:07.917Z,2.63
2022-09-29T10:00:43.362Z,1.27
2022-09-29T10:03:08.355Z,1.20
2022-09-29T10:05:39.641Z,1.30
2022-09-29T10:08:04.384Z,1.60
2022-09-29T10:10:29.311Z,1.50
2022-09-29T10:13:01.672Z,2.60
2022-09-29T10:15:38.039Z,1.43
2022-09-29T10:18:52.781Z,1.85
2022-09-29T10:21:39.787Z,2.55
2022-09-29T10:24:04.375Z,1.10
2022-09-29T10:26:34.953Z,3.92
2022-09-29T10:29:01.740Z,1.30
2022-09-29T10:31:29.553Z,1.98
2022-09-29T10:33:56.754Z,1.27
2022-09-29T10:36:21.825Z,1.00
2022-09-29T10:38:47.600Z,1.00
2022-09-29T10:41:10.421Z,2.30
2022-09-29T10:43:38.198Z,2.47
2022-09-29T10:46:03.823Z,3.05
2022-09-29T10:48:29.233Z,3.50
2022-09-29T10:51:05.479Z,3.17
2022-09-29T10:53:43.173Z,2.13
2022-09-29T10:56:22.319Z,1.20
2022-09-29T10:59:00.308Z,2.72
2022-09-29T11:01:27.616Z,3.28
2022-09-29T11:03:53.297Z,1.73
2022-09-29T11:06:16.980Z,1.60
2022-09-29T11:09:04.328Z,2.83
2022-09-29T11:11:39.506Z,1.70
2022-09-29T11:14:02.448Z,1.70
2022-09-29T11:16:31.317Z,2.40
2022-09-29T11:18:59.160Z,1.03
2022-09-29T11:21:34.520Z,1.65
2022-09-29T11:24:14.999Z,1.20
2022-09-29T11:26:52.252Z,1.20
2022-09-29T11:29:43.175Z,2.58
2022-09-29T11:32:35.566Z,3.07
2022-09-29T11:35:40.852Z,1.10
2022-09-29T11:38:32.390Z,1.60
2022-09-29T11:41:32.242Z,3.22
2022-09-29T11:44:09.847Z,1.20
2022-09-29T11:46:55.599Z,1.80
2022-09-29T11:49:32.968Z,2.45
2022-09-29T11:52:10.546Z,2.33
2022-09-29T11:55:03.732Z,1.65
2022-09-29T11:57:37.863Z,2.90
2022-09-29T12:00:14.610Z,2.77
2022-09-29T12:02:54.014Z,2.90
2022-09-29T12:05:27.041Z,2.50
2022-09-29T12:08:05.973Z,1.95
2022-09-29T12:10:44.287Z,2.55
2022-09-29T12:13:21.006Z,1.93
2022-09-29T12:16:10.843Z,2.45
2022-09-29T12:18:48.177Z,2.22
2022-09-29T12:21:15.604Z,2.40
2022-09-29T12:23:41.638Z,2.60
2022-09-29T12:26:14.079Z,2.10
2022-09-29T12:29:00.343Z,1.52
2022-09-29T12:31:32.446Z,2.08
2022-09-29T12:34:00.479Z,1.83
2022-09-29T12:36:53.771Z,1.65
2022-09-29T12:39:37.074Z,2.53
2022-09-29T12:42:17.921Z,1.50
2022-09-29T12:45:10.870Z,2.28
2022-09-29T12:48:03.361Z,1.73
2022-09-29T12:50:34.241Z,2.15
2022-09-29T12:53:22.188Z,2.17
2022-09-29T12:56:14.220Z,1.05
2022-09-29T12:58:48.079Z,2.65
2022-09-29T13:01:29.048Z,1.80
2022-09-29T13:04:15.261Z,3.13
2022-09-29T13:06:59.306Z,2.20
2022-09-29T13:09:40.778Z,1.20
2022-09-29T13:12:30.332Z,2.83
2022-09-29T13:15:08.162Z,1.45
2022-09-29T13:18:00.006Z,2.63
2022-09-29T13:20:44.709Z,1.47
2022-09-29T13:23:30.091Z,2.60
2022-09-29T13:26:20.027Z,1.60
2022-09-29T13:28:49.990Z,5.50
2022-09-29T13:31:21.000Z,1.45
2022-09-29T13:33:53.562Z,1.90
2022-09-29T13:36:28.490Z,1.60
2022-09-29T13:38:56.488Z,1.67
2022-09-29T13:41:22.037Z,1.75
2022-09-29T13:43:50.354Z,1.83
2022-09-29T13:46:31.266Z,2.13
2022-09-29T13:49:02.316Z,1.45
2022-09-29T13:51:42.661Z,1.45
2022-09-29T13:54:41.470Z,3.40
2022-09-29T13:57:16.233Z,4.43
2022-09-29T14:00:02.340Z,4.07
2022-09-29T14:02:40.277Z,1.40
2022-09-29T14:05:05.878Z,1.63
2022-09-29T14:07:49.821Z,2.90
2022-09-29T14:10:24.063Z,1.50
2022-09-29T14:12:53.845Z,1.80
2022-09-29T14:15:19.036Z,2.95
2022-09-29T14:17:46.794Z,1.75
2022-09-29T14:20:32.095Z,2.30
2022-09-29T14:23:02.550Z,3.28
2022-09-29T14:25:28.950Z,3.00
2022-09-29T14:28:01.539Z,1.90
2022-09-29T14:30:44.463Z,1.75
2022-09-29T14:33:30.292Z,1.40
2022-09-29T14:35:58.931Z,3.03
2022-09-29T14:38:27.725Z,2.33
2022-09-29T14:40:59.037Z,1.85
2022-09-29T14:43:25.061Z,2.00
2022-09-29T14:46:25.372Z,1.85
2022-09-29T14:49:09.658Z,1.92
2022-09-29T14:51:57.872Z,2.30
2022-09-29T14:54:32.322Z,2.10
2022-09-29T14:57:02.904Z,3.38
2022-09-29T14:59:28.168Z,1.80
2022-09-29T15:02:16.569Z,2.45
2022-09-29T15:04:40.215Z,3.70
2022-09-29T15:07:04.813Z,3.47
2022-09-29T15:09:27.488Z,4.15
2022-09-29T15:12:02.811Z,3.05
2022-09-29T15:14:28.231Z,4.55
2022-09-29T15:17:18.936Z,2.73
2022-09-29T15:19:56.097Z,2.50
2022-09-29T15:22:37.201Z,1.90
2022-09-29T15:25:30.574Z,3.08
2022-09-29T15:27:55.572Z,2.72
2022-09-29T15:30:20.544Z,6.47
2022-09-29T15:32:45.149Z,8.35
2022-09-29T15:35:13.136Z,3.08
2022-09-29T15:37:58.102Z,2.60
2022-09-29T15:40:24.220Z,2.75
2022-09-29T15:42:47.039Z,3.50
2022-09-29T15:45:17.433Z,2.97
2022-09-29T15:47:41.501Z,3.20
2022-09-29T15:50:26.123Z,2.30
2022-09-29T15:52:50.539Z,3.70
2022-09-29T15:55:18.928Z,3.30
2022-09-29T15:57:47.938Z,4.25
2022-09-29T16:00:22.714Z,3.33
2022-09-29T16:02:45.513Z,4.22
2022-09-29T16:05:15.722Z,2.90
2022-09-29T16:07:41.202Z,2.87
2022-09-29T16:10:16.609Z,3.30
2022-09-29T16:12:47.496Z,8.63
2022-09-29T16:15:18.375Z,5.35
2022-09-29T16:17:40.927Z,3.22
2022-09-29T16:20:03.750Z,3.47
2022-09-29T16:22:27.307Z,3.22
2022-09-29T16:25:14.896Z,2.85
2022-09-29T16:27:47.876Z,3.60
2022-09-29T16:30:30.734Z,3.03
2022-09-29T16:32:57.237Z,2.43
2022-09-29T16:35:41.598Z,2.20
2022-09-29T16:38:34.365Z,2.63
2022-09-29T16:40:57.190Z,5.05
2022-09-29T16:43:31.203Z,4.93
2022-09-29T16:45:59.210Z,4.90
2022-09-29T16:48:24.925Z,5.10
2022-09-29T16:50:48.747Z,5.97
2022-09-29T16:53:33.460Z,4.80
2022-09-29T16:56:07.445Z,5.60
2022-09-29T16:58:31.835Z,5.23
2022-09-29T17:00:55.233Z,5.13
2022-09-29T17:03:18.379Z,5.45
2022-09-29T17:05:47.570Z,5.90
2022-09-29T17:08:29.282Z,4.63
2022-09-29T17:10:54.788Z,6.00
2022-09-29T17:13:18.153Z,6.38
2022-09-29T17:15:41.004Z,6.88
2022-09-29T17:18:04.002Z,11.23
2022-09-29T17:20:30.944Z,9.57
2022-09-29T17:22:54.512Z,10.90
2022-09-29T17:25:17.122Z,8.77
2022-09-29T17:27:58.745Z,7.28
2022-09-29T17:30:23.922Z,4.65
2022-09-29T17:32:47.383Z,6.47
2022-09-29T17:35:14.531Z,7.93
2022-09-29T17:37:39.174Z,5.60
2022-09-29T17:40:03.587Z,7.00
2022-09-29T17:42:26.990Z,6.30
2022-09-29T17:44:49.475Z,6.05
2022-09-29T17:47:27.855Z,6.60
2022-09-29T17:49:51.787Z,14.15
2022-09-29T17:52:15.620Z,18.33
2022-09-29T17:54:39.360Z,18.13
2022-09-29T17:57:02.659Z,13.23
2022-09-29T17:59:25.464Z,17.90
2022-09-29T18:01:50.446Z,22.40
2022-09-29T18:04:12.936Z,20.42
2022-09-29T18:06:37.783Z,20.27
2022-09-29T18:09:00.670Z,19.25
2022-09-29T18:11:25.896Z,17.47
2022-09-29T18:13:49.417Z,18.88
2022-09-29T18:16:14.832Z,19.10
2022-09-29T18:18:37.962Z,20.27
2022-09-29T18:21:01.407Z,20.60
2022-09-29T18:23:24.225Z,22.23
2022-09-29T18:25:50.389Z,21.77
2022-09-29T18:28:17.695Z,20.70
2022-09-29T18:30:40.539Z,18.65
2022-09-29T18:33:03.224Z,21.85
2022-09-29T18:35:31.629Z,20.10
2022-09-29T18:37:54.567Z,19.30
2022-09-29T18:40:18.883Z,19.30
2022-09-29T18:42:45.911Z,16.95
2022-09-29T18:45:13.574Z,17.50
2022-09-29T18:47:36.318Z,16.30
2022-09-29T18:49:58.841Z,16.75
2022-09-29T18:52:21.506Z,14.75
2022-09-29T18:54:44.385Z,15.32
2022-09-29T18:57:12.432Z,16.02
2022-09-29T18:59:35.460Z,12.27
2022-09-29T19:01:58.204Z,12.80
2022-09-29T19:04:20.931Z,13.43
2022-09-29T19:06:43.512Z,13.63
2022-09-29T19:09:06.602Z,16.17
2022-09-29T19:11:29.428Z,13.03
2022-09-29T19:13:56.271Z,13.82
2022-09-29T19:16:18.968Z,12.85
2022-09-29T19:18:41.807Z,15.93
2022-09-29T19:21:13.079Z,14.55
2022-09-29T19:23:37.567Z,17.77
2022-09-29T19:26:01.649Z,13.55
2022-09-29T19:28:27.153Z,15.25
2022-09-29T19:30:50.514Z,12.88
2022-09-29T19:33:18.285Z,13.10
2022-09-29T19:35:48.548Z,14.13
2022-09-29T19:38:11.454Z,13.23
2022-09-29T19:40:34.963Z,14.10
2022-09-29T19:42:58.606Z,15.68
2022-09-29T19:45:21.700Z,15.13
2022-09-29T19:47:45.247Z,14.60
2022-09-29T19:50:28.033Z,17.67
2022-09-29T19:52:51.083Z,15.90
2022-09-29T19:55:15.377Z,14.90
2022-09-29T19:57:42.529Z,14.90
2022-09-29T20:00:05.491Z,14.17
2022-09-29T20:02:34.949Z,15.43
2022-09-29T20:04:58.098Z,15.05
2022-09-29T20:07:20.580Z,15.07
2022-09-29T20:09:43.243Z,14.75
2022-09-29T20:12:06.148Z,14.77
2022-09-29T20:14:28.669Z,13.95
2022-09-29T20:16:54.606Z,14.52
2022-09-29T20:19:19.724Z,16.00
2022-09-29T20:21:44.130Z,16.73
2022-09-29T20:24:07.031Z,15.83
2022-09-29T20:26:29.518Z,17.05
2022-09-29T20:28:52.936Z,17.80
2022-09-29T20:31:16.130Z,16.83
2022-09-29T20:33:38.815Z,15.07
2022-09-29T20:36:04.937Z,14.67
2022-09-29T20:38:32.147Z,16.48
2022-09-29T20:41:02.294Z,16.48
2022-09-29T20:43:24.853Z,15.68
2022-09-29T20:45:47.479Z,15.02
2022-09-29T20:48:10.619Z,18.37
2022-09-29T20:50:34.893Z,19.73
2022-09-29T20:52:58.710Z,16.73
2022-09-29T20:55:21.811Z,16.52
2022-09-29T20:57:46.424Z,16.35
2022-09-29T21:00:10.590Z,15.27
2022-09-29T21:02:33.324Z,18.13
2022-09-29T21:04:55.970Z,17.13
2022-09-29T21:07:37.012Z,14.98
2022-09-29T21:10:03.406Z,15.13
2022-09-29T21:12:26.324Z,14.23
2022-09-29T21:14:49.008Z,18.25
2022-09-29T21:17:11.529Z,17.58
2022-09-29T21:19:34.097Z,21.63
2022-09-29T21:22:05.771Z,17.67
2022-09-29T21:24:28.404Z,22.57
2022-09-29T21:26:53.314Z,17.67
2022-09-29T21:29:17.637Z,23.00
2022-09-29T21:31:40.113Z,18.45
2022-09-29T21:34:05.865Z,16.73
2022-09-29T21:36:30.427Z,18.07
2022-09-29T21:38:53.860Z,19.55
2022-09-29T21:41:25.548Z,20.42
2022-09-29T21:43:50.946Z,21.83
2022-09-29T21:46:16.408Z,22.85
2022-09-29T21:48:42.992Z,23.80
2022-09-29T21:51:10.653Z,25.80
2022-09-29T21:53:34.743Z,28.40
2022-09-29T21:56:09.493Z,27.77
2022-09-29T21:58:32.650Z,28.73
2022-09-29T22:00:55.756Z,26.67
2022-09-29T22:03:18.896Z,29.92
2022-09-29T22:05:42.555Z,30.95
2022-09-29T22:08:08.831Z,29.27
2022-09-29T22:10:35.872Z,27.75
2022-09-29T22:12:58.633Z,30.80
2022-09-29T22:15:21.105Z,25.63
2022-09-29T22:17:43.724Z,32.25
2022-09-29T22:20:08.711Z,29.05
2022-09-29T22:22:31.236Z,30.92
2022-09-29T22:24:53.843Z,30.83
2022-09-29T22:27:16.424Z,30.25
2022-09-29T22:29:39.091Z,29.02
2022-09-29T22:32:01.893Z,29.83
2022-09-29T22:34:24.293Z,30.55
2022-09-29T22:36:47.016Z,30.93
2022-09-29T22:39:10.787Z,30.55
2022-09-29T22:41:36.569Z,31.00
2022-09-29T22:44:00.190Z,31.50
2022-09-29T22:46:25.268Z,32.03
2022-09-29T22:48:47.911Z,33.90
2022-09-29T22:51:10.575Z,35.67
2022-09-29T22:53:33.463Z,33.45
2022-09-29T22:55:56.154Z,29.80
2022-09-29T22:58:19.109Z,29.23
2022-09-29T23:00:42.253Z,28.80
2022-09-29T23:03:05.597Z,27.50
2022-09-29T23:05:29.028Z,24.90
2022-09-29T23:07:51.530Z,23.50
2022-09-29T23:10:14.300Z,25.52
2022-09-29T23:12:42.681Z,24.17
2022-09-29T23:15:05.776Z,23.23
2022-09-29T23:17:29.994Z,25.90
2022-09-29T23:19:52.742Z,24.40
2022-09-29T23:22:15.453Z,22.63
2022-09-29T23:24:38.112Z,23.33
2022-09-29T23:27:00.671Z,22.83
2022-09-29T23:29:23.389Z,22.08
2022-09-29T23:31:49.573Z,20.38
2022-09-29T23:34:13.248Z,21.70
2022-09-29T23:36:35.805Z,22.03
2022-09-29T23:39:10.945Z,20.48
2022-09-29T23:41:33.792Z,21.45
2022-09-29T23:43:58.027Z,21.92
2022-09-29T23:46:20.664Z,22.23
2022-09-29T23:48:43.504Z,22.00
2022-09-29T23:51:06.041Z,26.05
2022-09-29T23:53:28.570Z,24.77
2022-09-29T23:55:51.151Z,22.02
2022-09-29T23:58:13.696Z,21.60
